createdAt,value
2022-08-14T00:02:05.005Z,5.53
2022-08-14T00:04:42.438Z,6.13
2022-08-14T00:07:14.208Z,6.00
2022-08-14T00:10:02.287Z,6.20
2022-08-14T00:12:37.783Z,5.93
2022-08-14T00:15:16.140Z,5.53
2022-08-14T00:17:47.863Z,5.47
2022-08-14T00:20:30.379Z,8.47
2022-08-14T00:23:16.866Z,6.50
2022-08-14T00:26:05.738Z,7.50
2022-08-14T00:28:35.873Z,6.67
2022-08-14T00:31:05.479Z,7.73
2022-08-14T00:33:52.020Z,7.60
2022-08-14T00:36:36.035Z,6.20
2022-08-14T00:39:14.046Z,5.97
2022-08-14T00:41:42.304Z,6.80
2022-08-14T00:44:09.845Z,5.70
2022-08-14T00:46:38.550Z,10.40
2022-08-14T00:49:08.039Z,6.50
2022-08-14T00:51:39.580Z,6.43
2022-08-14T00:54:21.215Z,6.17
2022-08-14T00:56:55.357Z,6.07
2022-08-14T00:59:25.928Z,8.10
2022-08-14T01:01:58.326Z,5.90
2022-08-14T01:04:37.650Z,6.50
2022-08-14T01:07:21.344Z,7.10
2022-08-14T01:09:58.709Z,6.00
2022-08-14T01:12:29.765Z,5.60
2022-08-14T01:15:02.045Z,5.23
2022-08-14T01:17:52.070Z,5.83
2022-08-14T01:20:40.921Z,6.70
2022-08-14T01:23:16.571Z,6.20
2022-08-14T01:25:51.558Z,6.00
2022-08-14T01:28:46.730Z,11.23
2022-08-14T01:31:17.416Z,6.43
2022-08-14T01:35:16.007Z,7.63
2022-08-14T01:36:39.371Z,7.30
2022-08-14T01:39:13.799Z,7.10
2022-08-14T01:41:44.306Z,8.73
2022-08-14T01:44:33.530Z,6.93
2022-08-14T01:47:12.241Z,6.10
2022-08-14T01:49:59.399Z,7.53
2022-08-14T01:52:33.931Z,7.87
2022-08-14T01:55:16.093Z,11.23
2022-08-14T01:58:00.738Z,11.30
2022-08-14T02:00:30.969Z,12.03
2022-08-14T02:03:06.176Z,12.10
2022-08-14T02:05:38.542Z,12.50
2022-08-14T02:08:08.835Z,8.77
2022-08-14T02:10:47.097Z,8.70
2022-08-14T02:13:16.538Z,8.93
2022-08-14T02:15:45.475Z,9.20
2022-08-14T02:18:15.507Z,8.40
2022-08-14T02:20:42.860Z,10.37
2022-08-14T02:23:09.738Z,13.90
2022-08-14T02:25:39.636Z,10.77
2022-08-14T02:28:24.386Z,15.50
2022-08-14T02:30:54.548Z,11.77
2022-08-14T02:33:22.548Z,12.50
2022-08-14T02:35:53.442Z,11.30
2022-08-14T02:38:34.333Z,12.83
2022-08-14T02:41:02.945Z,9.30
2022-08-14T02:43:37.130Z,13.43
2022-08-14T02:46:12.998Z,11.83
2022-08-14T02:49:01.079Z,12.10
2022-08-14T02:51:30.518Z,12.70
2022-08-14T02:53:58.384Z,11.60
2022-08-14T02:56:30.515Z,16.10
2022-08-14T02:59:15.902Z,15.90
2022-08-14T03:01:51.014Z,12.40
2022-08-14T03:04:22.781Z,12.67
2022-08-14T03:07:06.644Z,14.37
2022-08-14T03:09:42.399Z,17.43
2022-08-14T03:12:31.802Z,14.20
2022-08-14T03:15:08.911Z,16.43
2022-08-14T03:17:56.551Z,18.00
2022-08-14T03:20:28.846Z,16.33
2022-08-14T03:23:03.241Z,13.37
2022-08-14T03:25:34.050Z,16.10
2022-08-14T03:28:14.697Z,14.53
2022-08-14T03:30:59.908Z,15.53
2022-08-14T03:33:38.158Z,21.13
2022-08-14T03:37:51.592Z,16.60
2022-08-14T03:39:22.074Z,14.93
2022-08-14T03:41:55.802Z,13.70
2022-08-14T03:45:20.165Z,15.63
2022-08-14T03:47:12.145Z,22.30
2022-08-14T03:49:44.687Z,20.00
2022-08-14T03:52:37.726Z,15.67
2022-08-14T03:55:00.378Z,17.20
2022-08-14T03:57:32.680Z,16.57
2022-08-14T04:00:03.673Z,16.53
2022-08-14T04:02:37.406Z,16.53
2022-08-14T04:05:13.054Z,16.13
2022-08-14T04:07:49.692Z,16.93
2022-08-14T04:10:32.236Z,16.80
2022-08-14T04:13:04.392Z,14.60
2022-08-14T04:15:55.824Z,19.90
2022-08-14T04:18:20.468Z,12.53
2022-08-14T04:20:54.301Z,15.27
2022-08-14T04:23:29.494Z,16.17
2022-08-14T04:26:02.201Z,14.73
2022-08-14T04:29:07.409Z,18.10
2022-08-14T04:31:18.681Z,13.77
2022-08-14T04:34:06.406Z,19.87
2022-08-14T04:36:54.905Z,16.03
2022-08-14T04:39:46.262Z,18.47
2022-08-14T04:42:32.498Z,14.93
2022-08-14T04:45:00.664Z,14.50
2022-08-14T04:47:46.673Z,16.13
2022-08-14T04:50:13.599Z,17.23
2022-08-14T04:52:40.985Z,18.57
2022-08-14T04:55:11.020Z,17.43
2022-08-14T04:57:39.237Z,18.53
2022-08-14T05:00:07.492Z,14.10
2022-08-14T05:02:43.590Z,18.23
2022-08-14T05:05:10.565Z,17.27
2022-08-14T05:07:54.171Z,18.27
2022-08-14T05:10:25.967Z,17.97
2022-08-14T05:13:12.964Z,20.63
2022-08-14T05:15:42.487Z,23.40
2022-08-14T05:18:17.579Z,21.67
2022-08-14T05:21:56.781Z,19.67
2022-08-14T05:23:51.958Z,18.20
2022-08-14T05:26:21.581Z,17.13
2022-08-14T05:28:48.861Z,17.70
2022-08-14T05:31:20.755Z,19.10
2022-08-14T05:33:56.546Z,19.80
2022-08-14T05:36:24.905Z,20.90
2022-08-14T05:38:53.280Z,19.10
2022-08-14T05:41:21.765Z,18.70
2022-08-14T05:43:49.520Z,24.83
2022-08-14T05:46:23.407Z,16.93
2022-08-14T05:48:53.745Z,18.10
2022-08-14T05:51:22.188Z,18.30
2022-08-14T05:53:57.014Z,15.60
2022-08-14T05:56:29.234Z,15.67
2022-08-14T05:58:56.253Z,14.13
2022-08-14T06:01:23.614Z,17.33
2022-08-14T06:03:50.689Z,17.37
2022-08-14T06:06:21.586Z,17.93
2022-08-14T06:08:48.475Z,17.33
2022-08-14T06:11:20.419Z,15.40
2022-08-14T06:13:58.495Z,17.50
2022-08-14T06:16:25.619Z,16.97
2022-08-14T06:18:53.281Z,19.73
2022-08-14T06:21:22.973Z,20.57
2022-08-14T06:23:50.531Z,20.10
2022-08-14T06:26:21.237Z,20.60
2022-08-14T06:28:52.439Z,20.97
2022-08-14T06:31:21.035Z,19.37
2022-08-14T06:35:09.623Z,21.70
2022-08-14T06:36:37.947Z,19.30
2022-08-14T06:39:08.210Z,19.37
2022-08-14T06:41:56.976Z,20.37
2022-08-14T06:44:30.729Z,20.63
2022-08-14T06:47:04.385Z,18.13
2022-08-14T06:49:40.536Z,17.83
2022-08-14T06:52:16.759Z,22.00
2022-08-14T06:54:45.640Z,17.37
2022-08-14T06:57:13.844Z,19.77
2022-08-14T06:59:40.980Z,17.77
2022-08-14T07:02:28.862Z,21.83
2022-08-14T07:05:26.328Z,14.43
2022-08-14T07:07:53.441Z,18.13
2022-08-14T07:10:22.192Z,15.80
2022-08-14T07:12:56.531Z,16.20
2022-08-14T07:15:29.789Z,13.27
2022-08-14T07:18:00.488Z,12.47
2022-08-14T07:20:30.854Z,15.70
2022-08-14T07:23:07.703Z,13.63
2022-08-14T07:25:38.166Z,16.70
2022-08-14T07:28:20.686Z,14.60
2022-08-14T07:30:51.581Z,13.50
2022-08-14T07:33:24.442Z,14.17
2022-08-14T07:35:59.671Z,13.03
2022-08-14T07:38:32.056Z,13.13
2022-08-14T07:41:12.026Z,17.10
2022-08-14T07:43:44.197Z,15.17
2022-08-14T07:46:21.370Z,11.23
2022-08-14T07:48:56.774Z,9.40
2022-08-14T07:51:24.009Z,10.57
2022-08-14T07:53:57.162Z,14.07
2022-08-14T07:56:46.958Z,12.80
2022-08-14T07:59:12.711Z,13.60
2022-08-14T08:01:48.484Z,13.87
2022-08-14T08:04:27.315Z,10.33
2022-08-14T08:06:54.899Z,9.13
2022-08-14T08:09:32.458Z,10.47
2022-08-14T08:12:04.874Z,11.00
2022-08-14T08:14:56.873Z,9.93
2022-08-14T08:17:24.151Z,16.00
2022-08-14T08:19:51.855Z,9.83
2022-08-14T08:22:21.224Z,10.50
2022-08-14T08:24:50.430Z,9.00
2022-08-14T08:27:22.469Z,10.97
2022-08-14T08:29:51.269Z,11.47
2022-08-14T08:32:18.872Z,11.83
2022-08-14T08:34:48.379Z,12.13
2022-08-14T08:37:16.196Z,9.87
2022-08-14T08:40:03.344Z,10.23
2022-08-14T08:42:41.233Z,9.50
2022-08-14T08:45:15.579Z,9.27
2022-08-14T08:47:45.346Z,11.33
2022-08-14T08:50:31.906Z,11.40
2022-08-14T08:53:03.293Z,9.17
2022-08-14T08:55:40.196Z,9.73
2022-08-14T08:58:16.572Z,9.37
2022-08-14T09:00:57.395Z,8.87
2022-08-14T09:03:28.938Z,8.07
2022-08-14T09:06:03.878Z,8.83
2022-08-14T09:08:34.043Z,8.57
2022-08-14T09:11:18.924Z,8.37
2022-08-14T09:13:53.586Z,10.07
2022-08-14T09:16:24.888Z,9.07
2022-08-14T09:18:53.427Z,11.10
2022-08-14T09:21:24.155Z,8.07
2022-08-14T09:24:29.194Z,6.20
2022-08-14T09:26:43.753Z,7.47
2022-08-14T09:29:11.742Z,8.17
2022-08-14T09:31:52.804Z,7.27
2022-08-14T09:34:53.258Z,8.40
2022-08-14T09:37:44.958Z,7.43
2022-08-14T09:40:55.570Z,7.40
2022-08-14T09:43:31.301Z,8.93
2022-08-14T09:46:01.128Z,11.20
2022-08-14T09:48:31.019Z,8.63
2022-08-14T09:54:18.881Z,9.43
2022-08-14T09:56:30.250Z,8.73
2022-08-14T09:59:15.093Z,8.20
2022-08-14T10:01:52.829Z,8.47
2022-08-14T10:04:34.515Z,8.93
2022-08-14T10:07:08.391Z,7.47
2022-08-14T10:09:57.589Z,8.10
2022-08-14T10:12:45.368Z,6.87
2022-08-14T10:15:32.792Z,7.67
2022-08-14T10:18:18.546Z,7.27
2022-08-14T10:21:01.437Z,7.63
2022-08-14T10:23:43.338Z,13.90
2022-08-14T10:26:22.343Z,9.07
2022-08-14T10:29:17.879Z,6.33
2022-08-14T10:31:44.509Z,8.10
2022-08-14T10:34:25.945Z,5.70
2022-08-14T10:37:14.481Z,4.77
2022-08-14T10:40:01.929Z,5.03
2022-08-14T10:42:43.679Z,12.53
2022-08-14T10:45:34.067Z,8.60
2022-08-14T10:48:24.365Z,5.27
2022-08-14T10:51:01.219Z,5.13
2022-08-14T10:53:39.307Z,4.70
2022-08-14T10:56:21.662Z,5.13
2022-08-14T10:59:08.491Z,5.13
2022-08-14T11:01:41.834Z,3.53
2022-08-14T11:04:27.553Z,4.43
2022-08-14T11:06:56.664Z,4.30
2022-08-14T11:09:26.104Z,6.47
2022-08-14T11:12:34.294Z,3.70
2022-08-14T11:15:03.167Z,3.63
2022-08-14T11:17:32.754Z,4.53
2022-08-14T11:20:03.416Z,4.40
2022-08-14T11:22:55.537Z,4.03
2022-08-14T11:25:23.505Z,4.60
2022-08-14T11:27:56.139Z,4.33
2022-08-14T11:30:51.755Z,4.50
2022-08-14T11:33:14.034Z,5.10
2022-08-14T11:35:48.693Z,5.50
2022-08-14T11:38:18.049Z,4.50
2022-08-14T11:40:46.846Z,4.30
2022-08-14T11:43:15.498Z,3.50
2022-08-14T11:45:48.713Z,4.20
2022-08-14T11:49:04.408Z,3.70
2022-08-14T11:51:20.900Z,3.93
2022-08-14T11:53:55.219Z,9.40
2022-08-14T11:56:25.497Z,12.73
2022-08-14T11:58:56.649Z,6.40
2022-08-14T12:01:33.371Z,3.60
2022-08-14T12:04:33.016Z,4.30
2022-08-14T12:07:01.694Z,3.77
2022-08-14T12:09:35.008Z,4.47
2022-08-14T12:12:35.136Z,4.03
2022-08-14T12:15:05.341Z,3.90
2022-08-14T12:17:50.592Z,4.53
2022-08-14T12:20:32.358Z,2.97
2022-08-14T12:23:02.035Z,3.73
2022-08-14T12:25:29.772Z,4.63
2022-08-14T12:28:01.385Z,4.20
2022-08-14T12:30:42.832Z,3.50
2022-08-14T12:33:26.930Z,3.93
2022-08-14T12:36:04.126Z,5.00
2022-08-14T12:38:44.176Z,4.47
2022-08-14T12:41:21.948Z,4.13
2022-08-14T12:44:02.346Z,4.17
2022-08-14T12:46:43.610Z,4.40
2022-08-14T12:49:17.672Z,4.20
2022-08-14T12:51:56.912Z,4.20
2022-08-14T12:54:27.267Z,4.13
2022-08-14T12:57:19.895Z,4.43
2022-08-14T12:59:49.584Z,4.60
2022-08-14T13:02:26.124Z,4.40
2022-08-14T13:05:16.118Z,4.60
2022-08-14T13:07:45.753Z,3.77
2022-08-14T13:10:47.420Z,4.30
2022-08-14T13:13:13.490Z,5.20
2022-08-14T13:15:48.418Z,5.77
2022-08-14T13:18:26.565Z,4.30
2022-08-14T13:20:57.894Z,3.93
2022-08-14T13:23:36.291Z,4.53
2022-08-14T13:26:04.867Z,4.43
2022-08-14T13:28:39.813Z,4.40
2022-08-14T13:31:24.663Z,4.33
2022-08-14T13:33:57.723Z,5.30
2022-08-14T13:36:51.992Z,4.90
2022-08-14T13:39:20.316Z,7.10
2022-08-14T13:41:48.744Z,5.97
2022-08-14T13:44:27.423Z,15.40
2022-08-14T13:46:54.563Z,5.40
2022-08-14T13:49:23.782Z,4.83
2022-08-14T13:51:54.183Z,3.93
2022-08-14T13:54:22.595Z,4.37
2022-08-14T13:56:49.539Z,5.00
2022-08-14T13:59:20.625Z,3.80
2022-08-14T14:02:08.633Z,3.90
2022-08-14T14:04:46.372Z,4.10
2022-08-14T14:07:21.597Z,4.27
2022-08-14T14:09:54.759Z,4.10
2022-08-14T14:12:40.676Z,4.80
2022-08-14T14:15:17.735Z,4.60
2022-08-14T14:17:47.517Z,4.37
2022-08-14T14:20:34.868Z,4.63
2022-08-14T14:23:10.481Z,4.13
2022-08-14T14:25:51.212Z,4.63
2022-08-14T14:28:34.262Z,3.43
2022-08-14T14:31:06.098Z,4.00
2022-08-14T14:33:47.116Z,3.80
2022-08-14T14:36:24.949Z,4.40
2022-08-14T14:38:55.965Z,4.53
2022-08-14T14:41:37.951Z,4.73
2022-08-14T14:44:09.035Z,4.17
2022-08-14T14:46:41.509Z,4.30
2022-08-14T14:49:14.597Z,4.57
2022-08-14T14:51:44.479Z,4.23
2022-08-14T14:54:14.469Z,4.77
2022-08-14T14:56:50.458Z,4.17
2022-08-14T14:59:20.155Z,4.17
2022-08-14T15:01:54.062Z,4.40
2022-08-14T15:04:21.935Z,4.40
2022-08-14T15:06:50.055Z,4.80
2022-08-14T15:09:20.301Z,4.90
2022-08-14T15:11:47.480Z,4.83
2022-08-14T15:14:55.109Z,4.60
2022-08-14T15:17:02.438Z,4.73
2022-08-14T15:19:29.630Z,7.10
2022-08-14T15:21:58.088Z,5.57
2022-08-14T15:24:27.003Z,5.67
2022-08-14T15:26:58.544Z,5.03
2022-08-14T15:29:27.040Z,4.70
2022-08-14T15:31:54.144Z,7.00
2022-08-14T15:34:44.381Z,4.73
2022-08-14T15:37:12.774Z,4.63
2022-08-14T15:39:44.404Z,4.00
2022-08-14T15:42:16.300Z,4.17
2022-08-14T15:44:58.330Z,4.00
2022-08-14T15:47:32.309Z,4.07
2022-08-14T15:50:04.242Z,7.27
2022-08-14T15:52:35.136Z,4.13
2022-08-14T15:55:15.175Z,4.33
2022-08-14T15:58:01.418Z,4.47
2022-08-14T16:00:53.750Z,4.40
2022-08-14T16:03:27.062Z,3.83
2022-08-14T16:06:02.656Z,4.43
2022-08-14T16:08:30.917Z,4.60
2022-08-14T16:11:05.512Z,3.93
2022-08-14T16:13:42.830Z,4.30
2022-08-14T16:16:49.223Z,12.10
2022-08-14T16:19:18.359Z,4.50
2022-08-14T16:22:01.199Z,5.07
2022-08-14T16:24:33.144Z,4.90
2022-08-14T16:27:01.416Z,4.73
2022-08-14T16:29:31.700Z,4.50
2022-08-14T16:32:01.470Z,4.20
2022-08-14T16:34:45.821Z,4.57
2022-08-14T16:37:18.388Z,4.47
2022-08-14T16:39:48.695Z,4.00
2022-08-14T16:43:02.259Z,4.73
2022-08-14T16:45:04.460Z,4.13
2022-08-14T16:47:35.227Z,4.27
2022-08-14T16:50:11.672Z,4.03
2022-08-14T16:53:00.678Z,3.73
2022-08-14T16:55:30.100Z,3.50
2022-08-14T16:57:58.642Z,3.87
2022-08-14T17:00:43.554Z,3.40
2022-08-14T17:03:12.214Z,3.40
2022-08-14T17:05:46.564Z,3.70
2022-08-14T17:08:32.079Z,3.53
2022-08-14T17:11:11.149Z,3.73
2022-08-14T17:13:59.020Z,3.50
2022-08-14T17:16:38.274Z,3.40
2022-08-14T17:19:11.592Z,5.10
2022-08-14T17:21:42.755Z,6.03
2022-08-14T17:24:57.382Z,3.50
2022-08-14T17:27:05.004Z,4.10
2022-08-14T17:29:54.446Z,3.40
2022-08-14T17:32:44.388Z,3.53
2022-08-14T17:38:38.560Z,3.77
2022-08-14T17:41:17.349Z,4.07
2022-08-14T17:43:44.197Z,6.07
2022-08-14T17:46:48.006Z,4.83
2022-08-14T17:49:32.241Z,4.47
2022-08-14T17:52:17.159Z,6.53
2022-08-14T17:54:52.767Z,6.10
2022-08-14T17:57:28.513Z,4.90
2022-08-14T17:59:57.002Z,4.77
2022-08-14T18:02:31.361Z,4.50
2022-08-14T18:05:00.763Z,3.83
2022-08-14T18:08:00.093Z,4.27
2022-08-14T18:10:51.715Z,4.13
2022-08-14T18:13:10.791Z,4.40
2022-08-14T18:15:41.231Z,4.90
2022-08-14T18:18:13.177Z,4.37
2022-08-14T18:21:41.152Z,4.10
2022-08-14T18:23:31.409Z,4.23
2022-08-14T18:25:59.869Z,3.87
2022-08-14T18:28:50.828Z,4.53
2022-08-14T18:31:22.704Z,4.83
2022-08-14T18:34:31.087Z,4.93
2022-08-14T18:37:14.345Z,4.90
2022-08-14T18:40:02.325Z,5.47
2022-08-14T18:42:34.908Z,9.97
2022-08-14T18:45:02.195Z,4.70
2022-08-14T18:48:05.059Z,5.20
2022-08-14T18:50:32.161Z,5.43
2022-08-14T18:53:10.978Z,7.03
2022-08-14T18:55:52.695Z,9.03
2022-08-14T18:58:31.289Z,8.33
2022-08-14T19:01:02.125Z,5.47
2022-08-14T19:03:34.280Z,5.20
2022-08-14T19:06:09.503Z,5.40
2022-08-14T19:08:47.559Z,7.60
2022-08-14T19:11:32.677Z,6.00
2022-08-14T19:14:05.046Z,5.70
2022-08-14T19:16:37.871Z,8.77
2022-08-14T19:19:12.004Z,6.40
2022-08-14T19:21:57.677Z,7.07
2022-08-14T19:24:33.848Z,8.93
2022-08-14T19:27:23.246Z,7.10
2022-08-14T19:30:19.714Z,5.87
2022-08-14T19:32:50.769Z,4.87
2022-08-14T19:35:19.256Z,4.03
2022-08-14T19:37:56.947Z,8.90
2022-08-14T19:40:42.698Z,11.10
2022-08-14T19:43:11.787Z,5.50
2022-08-14T19:45:39.214Z,12.30
2022-08-14T19:48:14.466Z,4.20
2022-08-14T19:50:46.156Z,4.40
2022-08-14T19:53:17.753Z,4.43
2022-08-14T19:56:01.897Z,4.80
2022-08-14T19:58:55.268Z,4.17
2022-08-14T20:01:28.692Z,6.20
2022-08-14T20:04:45.713Z,4.07
2022-08-14T20:06:56.945Z,4.03
2022-08-14T20:11:07.737Z,4.10
2022-08-14T20:12:34.730Z,4.20
2022-08-14T20:15:17.871Z,3.67
2022-08-14T20:17:53.686Z,23.33
2022-08-14T20:20:32.172Z,12.83
2022-08-14T20:23:11.140Z,4.27
2022-08-14T20:25:45.519Z,3.57
2022-08-14T20:28:31.894Z,2.73
2022-08-14T20:31:19.864Z,3.83
2022-08-14T20:34:07.897Z,2.87
2022-08-14T20:36:46.341Z,3.27
2022-08-14T20:39:15.271Z,3.23
2022-08-14T20:41:51.013Z,3.80
2022-08-14T20:44:41.767Z,8.10
2022-08-14T20:47:16.289Z,3.37
2022-08-14T20:49:43.844Z,3.50
2022-08-14T20:52:19.207Z,7.27
2022-08-14T20:54:51.387Z,3.73
2022-08-14T20:57:19.415Z,3.50
2022-08-14T20:59:53.724Z,3.07
2022-08-14T21:02:49.797Z,3.00
2022-08-14T21:05:21.911Z,8.10
2022-08-14T21:08:08.105Z,3.03
2022-08-14T21:10:43.827Z,3.90
2022-08-14T21:13:27.772Z,2.87
2022-08-14T21:16:05.321Z,3.30
2022-08-14T21:18:55.554Z,3.20
2022-08-14T21:21:41.812Z,3.53
2022-08-14T21:24:39.783Z,2.77
2022-08-14T21:27:12.488Z,3.27
2022-08-14T21:29:40.955Z,3.00
2022-08-14T21:32:33.633Z,2.70
2022-08-14T21:35:08.131Z,3.10
2022-08-14T21:37:43.955Z,2.87
2022-08-14T21:40:40.036Z,3.13
2022-08-14T21:43:03.753Z,2.70
2022-08-14T21:45:35.726Z,3.20
2022-08-14T21:48:10.750Z,3.10
2022-08-14T21:51:00.652Z,3.47
2022-08-14T21:53:34.375Z,4.30
2022-08-14T21:56:03.958Z,3.33
2022-08-14T21:58:51.909Z,3.20
2022-08-14T22:01:20.243Z,2.90
2022-08-14T22:03:55.209Z,3.63
2022-08-14T22:06:29.087Z,3.40
2022-08-14T22:08:58.266Z,2.63
2022-08-14T22:11:26.183Z,5.50
2022-08-14T22:13:56.629Z,3.67
2022-08-14T22:17:01.975Z,3.47
2022-08-14T22:19:19.867Z,7.20
2022-08-14T22:21:51.035Z,4.03
2022-08-14T22:24:37.554Z,3.27
2022-08-14T22:27:06.851Z,3.27
2022-08-14T22:29:34.694Z,3.80
2022-08-14T22:32:07.263Z,3.17
2022-08-14T22:34:34.996Z,3.27
2022-08-14T22:37:02.225Z,3.40
2022-08-14T22:40:46.223Z,3.53
2022-08-14T22:42:22.864Z,5.13
2022-08-14T22:44:56.416Z,4.10
2022-08-14T22:47:24.836Z,3.60
2022-08-14T22:50:30.120Z,3.10
2022-08-14T22:52:40.591Z,12.93
2022-08-14T22:55:16.958Z,3.10
2022-08-14T22:57:44.334Z,4.13
2022-08-14T23:00:25.342Z,3.27
2022-08-14T23:03:01.986Z,2.83
2022-08-14T23:05:38.728Z,6.20
2022-08-14T23:08:58.527Z,4.20
2022-08-14T23:10:56.464Z,3.80
2022-08-14T23:13:24.604Z,6.47
2022-08-14T23:15:51.483Z,3.30
2022-08-14T23:18:18.438Z,5.00
2022-08-14T23:20:49.620Z,3.00
2022-08-14T23:23:22.578Z,3.70
2022-08-14T23:25:59.766Z,6.83
2022-08-14T23:28:34.127Z,3.70
2022-08-14T23:31:28.424Z,4.73
2022-08-14T23:34:08.244Z,3.23
2022-08-14T23:36:54.342Z,7.40
2022-08-14T23:39:32.932Z,4.17
2022-08-14T23:42:09.267Z,3.37
2022-08-14T23:44:37.586Z,3.37
2022-08-14T23:47:10.988Z,6.90
2022-08-14T23:50:01.297Z,3.00
2022-08-14T23:52:50.456Z,4.13
2022-08-14T23:55:32.566Z,3.30
2022-08-14T23:58:00.670Z,5.57
